createdAt,value
2023-12-29T00:01:34.732Z,8.04
2023-12-29T00:04:01.959Z,7.99
2023-12-29T00:06:28.522Z,7.88
2023-12-29T00:08:55.084Z,8.07
2023-12-29T00:11:22.177Z,7.91
2023-12-29T00:13:49.352Z,7.91
2023-12-29T00:16:16.990Z,7.87
2023-12-29T00:18:43.906Z,7.84
2023-12-29T00:21:11.129Z,7.82
2023-12-29T00:23:37.601Z,7.85
2023-12-29T00:26:04.249Z,7.90
2023-12-29T00:28:30.774Z,7.79
2023-12-29T00:31:01.639Z,7.86
2023-12-29T00:33:30.693Z,7.86
2023-12-29T00:35:57.655Z,7.83
2023-12-29T00:38:24.345Z,7.86
2023-12-29T00:40:50.898Z,7.78
2023-12-29T00:43:18.259Z,8.02
2023-12-29T00:45:46.039Z,7.95
2023-12-29T00:48:13.137Z,7.93
2023-12-29T00:50:39.883Z,7.87
2023-12-29T00:53:06.416Z,7.87
2023-12-29T00:55:32.964Z,7.88
2023-12-29T00:57:59.797Z,7.83
2023-12-29T01:00:26.530Z,7.96
2023-12-29T01:02:53.015Z,7.97
2023-12-29T01:05:19.793Z,7.95
2023-12-29T01:07:46.374Z,7.96
2023-12-29T01:10:13.142Z,7.96
2023-12-29T01:12:39.870Z,7.98
2023-12-29T01:15:06.958Z,7.99
2023-12-29T01:17:34.009Z,8.10
2023-12-29T01:20:00.793Z,7.94
2023-12-29T01:22:27.334Z,8.03
2023-12-29T01:24:53.870Z,8.08
2023-12-29T01:27:20.563Z,8.05
2023-12-29T01:29:47.187Z,8.14
2023-12-29T01:32:13.781Z,8.08
2023-12-29T01:34:40.692Z,8.23
2023-12-29T01:37:07.447Z,8.13
2023-12-29T01:39:36.240Z,8.06
2023-12-29T01:42:02.789Z,8.18
2023-12-29T01:44:29.329Z,8.25
2023-12-29T01:46:59.858Z,8.18
2023-12-29T01:49:26.867Z,8.28
2023-12-29T01:51:57.043Z,8.28
2023-12-29T01:54:26.509Z,8.29
2023-12-29T01:56:56.379Z,8.27
2023-12-29T01:59:26.281Z,8.36
2023-12-29T02:01:55.824Z,8.39
2023-12-29T02:04:25.488Z,8.40
2023-12-29T02:06:53.130Z,8.46
2023-12-29T02:09:19.739Z,8.49
2023-12-29T02:11:47.278Z,8.49
2023-12-29T02:14:15.227Z,8.39
2023-12-29T02:16:59.840Z,8.37
2023-12-29T02:19:45.365Z,8.34
2023-12-29T02:22:13.092Z,8.36
2023-12-29T02:24:40.501Z,8.39
2023-12-29T02:27:19.777Z,8.43
2023-12-29T02:29:57.483Z,8.47
2023-12-29T02:32:24.999Z,8.47
2023-12-29T02:34:52.980Z,8.43
2023-12-29T02:37:20.857Z,8.43
2023-12-29T02:39:47.449Z,8.43
2023-12-29T02:42:21.311Z,8.47
2023-12-29T02:44:48.478Z,8.47
2023-12-29T02:47:15.260Z,8.52
2023-12-29T02:49:41.822Z,8.53
2023-12-29T02:52:08.532Z,8.69
2023-12-29T02:54:35.207Z,8.66
2023-12-29T02:57:01.790Z,8.64
2023-12-29T02:59:28.310Z,8.71
2023-12-29T03:01:54.913Z,8.75
2023-12-29T03:04:21.595Z,8.67
2023-12-29T03:06:48.331Z,8.91
2023-12-29T03:09:14.873Z,8.86
2023-12-29T03:11:41.397Z,8.81
2023-12-29T03:14:07.919Z,8.88
2023-12-29T03:16:34.511Z,8.87
2023-12-29T03:19:01.147Z,8.85
2023-12-29T03:21:27.720Z,8.86
2023-12-29T03:23:54.527Z,8.80
2023-12-29T03:26:21.100Z,8.73
2023-12-29T03:28:47.602Z,8.66
2023-12-29T03:31:14.171Z,8.77
2023-12-29T03:33:41.364Z,8.71
2023-12-29T03:36:10.086Z,8.71
2023-12-29T03:38:37.370Z,8.67
2023-12-29T03:41:06.764Z,8.84
2023-12-29T03:43:33.298Z,8.87
2023-12-29T03:46:00.270Z,8.94
2023-12-29T03:48:26.972Z,8.78
2023-12-29T03:50:53.564Z,8.80
2023-12-29T03:53:20.388Z,8.85
2023-12-29T03:55:46.899Z,8.85
2023-12-29T03:58:13.482Z,8.94
2023-12-29T04:00:42.764Z,8.82
2023-12-29T04:03:09.498Z,8.89
2023-12-29T04:05:36.057Z,8.86
2023-12-29T04:08:03.016Z,8.85
2023-12-29T04:10:29.585Z,8.81
2023-12-29T04:12:56.179Z,8.98
2023-12-29T04:15:22.926Z,8.99
2023-12-29T04:17:49.550Z,8.99
2023-12-29T04:20:16.122Z,8.98
2023-12-29T04:22:42.664Z,9.01
2023-12-29T04:25:10.182Z,9.07
2023-12-29T04:27:36.730Z,9.06
2023-12-29T04:30:04.138Z,9.03
2023-12-29T04:32:30.764Z,9.14
2023-12-29T04:34:57.302Z,9.19
2023-12-29T04:37:24.028Z,9.06
2023-12-29T04:39:50.622Z,9.02
2023-12-29T04:42:19.050Z,9.07
2023-12-29T04:44:46.009Z,9.13
2023-12-29T04:47:12.574Z,9.08
2023-12-29T04:49:39.927Z,9.12
2023-12-29T04:52:06.619Z,9.22
2023-12-29T04:54:33.326Z,9.04
2023-12-29T04:56:59.911Z,9.19
2023-12-29T04:59:26.431Z,9.14
2023-12-29T05:01:53.234Z,9.12
2023-12-29T05:04:20.224Z,9.06
2023-12-29T05:06:46.808Z,9.21
2023-12-29T05:09:13.347Z,9.19
2023-12-29T05:11:40.657Z,9.15
2023-12-29T05:14:07.194Z,9.15
2023-12-29T05:16:33.705Z,9.14
2023-12-29T05:19:00.311Z,9.13
2023-12-29T05:21:27.777Z,9.10
2023-12-29T05:23:54.409Z,9.03
2023-12-29T05:26:20.989Z,9.06
2023-12-29T05:28:47.471Z,9.01
2023-12-29T05:31:14.070Z,9.03
2023-12-29T05:33:40.884Z,9.13
2023-12-29T05:36:11.909Z,9.02
2023-12-29T05:38:39.184Z,9.10
2023-12-29T05:41:06.043Z,9.04
2023-12-29T05:43:33.868Z,9.11
2023-12-29T05:46:00.714Z,9.01
2023-12-29T05:48:27.422Z,9.10
2023-12-29T05:50:54.552Z,9.16
2023-12-29T05:53:21.096Z,9.14
2023-12-29T05:55:47.740Z,9.03
2023-12-29T05:58:14.401Z,8.92
2023-12-29T06:00:41.113Z,9.14
2023-12-29T06:03:07.835Z,8.98
2023-12-29T06:05:34.629Z,9.02
2023-12-29T06:08:01.551Z,9.11
2023-12-29T06:10:28.279Z,8.99
2023-12-29T06:12:54.954Z,9.00
2023-12-29T06:15:22.037Z,9.00
2023-12-29T06:17:48.738Z,8.96
2023-12-29T06:20:15.513Z,8.96
2023-12-29T06:22:42.243Z,8.97
2023-12-29T06:25:13.203Z,8.90
2023-12-29T06:27:41.810Z,8.86
2023-12-29T06:30:09.954Z,8.89
2023-12-29T06:32:36.780Z,8.80
2023-12-29T06:35:04.167Z,8.99
2023-12-29T06:37:30.932Z,8.99
2023-12-29T06:39:57.556Z,8.92
2023-12-29T06:42:24.162Z,8.90
2023-12-29T06:44:50.806Z,8.90
2023-12-29T06:47:17.390Z,8.88
2023-12-29T06:49:44.243Z,8.99
2023-12-29T06:52:10.970Z,9.02
2023-12-29T06:54:37.758Z,8.94
2023-12-29T06:57:04.506Z,9.01
2023-12-29T06:59:31.108Z,9.02
2023-12-29T07:01:58.502Z,8.90
2023-12-29T07:04:25.128Z,8.96
2023-12-29T07:06:51.955Z,8.98
2023-12-29T07:09:18.552Z,8.92
2023-12-29T07:11:50.124Z,8.97
2023-12-29T07:14:17.134Z,8.98
2023-12-29T07:16:43.890Z,8.97
2023-12-29T07:19:10.639Z,8.89
2023-12-29T07:21:37.289Z,8.98
2023-12-29T07:24:04.131Z,8.97
2023-12-29T07:26:30.783Z,9.06
2023-12-29T07:28:58.229Z,8.97
2023-12-29T07:31:24.881Z,9.02
2023-12-29T07:33:52.781Z,9.14
2023-12-29T07:36:19.494Z,9.00
2023-12-29T07:38:46.261Z,9.10
2023-12-29T07:41:12.997Z,9.15
2023-12-29T07:43:39.550Z,9.22
2023-12-29T07:46:07.056Z,9.21
2023-12-29T07:48:33.761Z,9.38
2023-12-29T07:51:06.294Z,9.37
2023-12-29T07:53:32.867Z,9.53
2023-12-29T07:55:59.354Z,9.47
2023-12-29T07:58:26.352Z,9.51
2023-12-29T08:00:58.601Z,9.57
2023-12-29T08:03:26.219Z,9.76
2023-12-29T08:05:52.811Z,9.66
2023-12-29T08:08:19.492Z,9.64
2023-12-29T08:10:46.001Z,9.73
2023-12-29T08:13:12.864Z,9.62
2023-12-29T08:15:39.710Z,9.86
2023-12-29T08:18:15.074Z,9.96
2023-12-29T08:20:42.008Z,10.03
2023-12-29T08:23:08.757Z,9.97
2023-12-29T08:25:38.074Z,9.86
2023-12-29T08:28:04.958Z,9.80
2023-12-29T08:30:31.480Z,9.89
2023-12-29T08:32:58.057Z,9.80
2023-12-29T08:35:24.566Z,9.82
2023-12-29T08:37:51.097Z,9.77
2023-12-29T08:40:17.823Z,9.83
2023-12-29T08:42:44.421Z,9.93
2023-12-29T08:45:10.929Z,9.80
2023-12-29T08:47:37.495Z,10.15
2023-12-29T08:50:05.201Z,10.16
2023-12-29T08:52:31.665Z,10.00
2023-12-29T08:54:58.293Z,9.84
2023-12-29T08:57:24.879Z,10.17
2023-12-29T08:59:52.173Z,10.10
2023-12-29T09:02:18.633Z,10.08
2023-12-29T09:04:45.204Z,10.01
2023-12-29T09:07:11.748Z,10.25
2023-12-29T09:09:38.289Z,10.24
2023-12-29T09:12:05.142Z,10.17
2023-12-29T09:14:33.659Z,10.08
2023-12-29T09:17:00.266Z,10.32
2023-12-29T09:19:31.741Z,10.40
2023-12-29T09:22:05.934Z,10.59
2023-12-29T09:24:32.439Z,10.52
2023-12-29T09:26:58.981Z,10.51
2023-12-29T09:29:25.503Z,10.43
2023-12-29T09:31:52.177Z,10.65
2023-12-29T09:34:19.428Z,10.27
2023-12-29T09:36:46.213Z,10.45
2023-12-29T09:39:12.932Z,10.54
2023-12-29T09:41:43.859Z,10.29
2023-12-29T09:44:15.214Z,10.32
2023-12-29T09:46:43.365Z,10.51
2023-12-29T09:49:10.412Z,10.46
2023-12-29T09:51:42.218Z,10.40
2023-12-29T09:54:11.828Z,10.31
2023-12-29T09:56:40.084Z,10.52
2023-12-29T09:59:09.858Z,10.54
2023-12-29T10:01:38.386Z,10.45
2023-12-29T10:04:05.488Z,10.72
2023-12-29T10:06:37.126Z,10.61
2023-12-29T10:09:07.423Z,10.65
2023-12-29T10:11:36.884Z,10.53
2023-12-29T10:14:18.427Z,10.72
2023-12-29T10:16:56.058Z,10.64
2023-12-29T10:19:38.498Z,10.74
2023-12-29T10:22:35.239Z,10.68
2023-12-29T10:25:02.270Z,10.63
2023-12-29T10:27:28.843Z,10.71
2023-12-29T10:29:55.400Z,10.60
2023-12-29T10:32:22.269Z,10.71
2023-12-29T10:34:49.080Z,10.49
2023-12-29T10:37:23.909Z,10.62
2023-12-29T10:39:57.652Z,10.67
2023-12-29T10:42:24.459Z,10.69
2023-12-29T10:45:06.797Z,11.02
2023-12-29T10:47:34.390Z,10.99
2023-12-29T10:50:03.097Z,10.84
2023-12-29T10:52:29.636Z,10.93
2023-12-29T10:55:10.806Z,11.03
2023-12-29T10:57:41.001Z,11.21
2023-12-29T11:00:09.105Z,11.22
2023-12-29T11:02:36.634Z,11.12
2023-12-29T11:05:08.619Z,11.55
2023-12-29T11:07:40.232Z,13.14
2023-12-29T11:10:10.788Z,13.17
2023-12-29T11:12:38.938Z,14.00
2023-12-29T11:15:07.514Z,14.02
2023-12-29T11:17:35.928Z,13.19
2023-12-29T11:20:05.108Z,13.75
2023-12-29T11:22:32.790Z,14.06
2023-12-29T11:25:00.864Z,14.38
2023-12-29T11:27:30.932Z,14.26
2023-12-29T11:29:59.637Z,13.95
2023-12-29T11:32:36.110Z,13.32
2023-12-29T11:35:14.719Z,12.79
2023-12-29T11:38:00.860Z,12.15
2023-12-29T11:40:49.225Z,12.26
2023-12-29T11:43:18.809Z,11.92
2023-12-29T11:45:46.420Z,11.79
2023-12-29T11:48:14.127Z,11.83
2023-12-29T11:50:41.857Z,11.60
2023-12-29T11:53:09.875Z,11.79
2023-12-29T11:55:40.563Z,11.76
2023-12-29T11:58:29.377Z,12.06
2023-12-29T12:00:57.047Z,11.94
2023-12-29T12:03:28.741Z,12.18
2023-12-29T12:06:00.720Z,11.95
2023-12-29T12:08:31.813Z,12.13
2023-12-29T12:11:19.958Z,11.95
2023-12-29T12:13:47.548Z,12.26
2023-12-29T12:16:53.040Z,12.24
2023-12-29T12:19:21.765Z,12.06
2023-12-29T12:21:50.103Z,12.14
2023-12-29T12:24:20.368Z,12.16
2023-12-29T12:26:46.967Z,12.28
2023-12-29T12:29:15.176Z,12.37
2023-12-29T12:31:58.186Z,12.58
2023-12-29T12:34:25.545Z,12.64
2023-12-29T12:36:53.681Z,13.32
2023-12-29T12:39:20.351Z,13.42
2023-12-29T12:41:47.317Z,13.17
2023-12-29T12:44:15.606Z,13.60
2023-12-29T12:46:48.196Z,13.66
2023-12-29T12:49:15.877Z,13.39
2023-12-29T12:51:43.504Z,13.15
2023-12-29T12:54:11.522Z,13.83
2023-12-29T12:56:38.206Z,13.59
2023-12-29T12:59:05.813Z,12.49
2023-12-29T13:01:37.192Z,13.37
2023-12-29T13:04:05.843Z,12.97
2023-12-29T13:06:41.974Z,12.94
2023-12-29T13:09:12.710Z,13.07
2023-12-29T13:11:41.873Z,13.04
2023-12-29T13:14:08.536Z,12.10
2023-12-29T13:16:42.611Z,12.04
2023-12-29T13:19:22.194Z,12.48
2023-12-29T13:21:51.378Z,11.99
2023-12-29T13:24:18.470Z,11.89
2023-12-29T13:26:47.620Z,11.39
2023-12-29T13:29:15.956Z,11.78
2023-12-29T13:31:42.962Z,11.63
2023-12-29T13:34:19.607Z,11.29
2023-12-29T13:37:03.544Z,11.40
2023-12-29T13:39:42.833Z,11.60
2023-12-29T13:42:11.701Z,11.38
2023-12-29T13:44:41.596Z,11.36
2023-12-29T13:47:09.172Z,11.39
2023-12-29T13:49:37.870Z,11.32
2023-12-29T13:52:05.404Z,11.55
2023-12-29T13:54:42.374Z,11.40
2023-12-29T13:57:08.902Z,11.40
2023-12-29T13:59:35.451Z,11.19
2023-12-29T14:02:22.380Z,11.48
2023-12-29T14:04:49.103Z,11.34
2023-12-29T14:07:20.647Z,11.41
2023-12-29T14:09:47.524Z,11.22
2023-12-29T14:12:14.149Z,11.56
2023-12-29T14:14:40.711Z,11.11
2023-12-29T14:17:08.462Z,11.42
2023-12-29T14:19:38.718Z,11.39
2023-12-29T14:22:05.528Z,11.40
2023-12-29T14:24:32.117Z,11.27
2023-12-29T14:26:59.959Z,11.21
2023-12-29T14:29:27.597Z,11.39
2023-12-29T14:31:54.292Z,11.36
2023-12-29T14:34:21.037Z,11.30
2023-12-29T14:36:47.805Z,11.36
2023-12-29T14:39:16.417Z,11.40
2023-12-29T14:41:43.557Z,11.30
2023-12-29T14:44:10.094Z,11.13
2023-12-29T14:46:38.145Z,11.28
2023-12-29T14:49:05.057Z,11.41
2023-12-29T14:51:31.696Z,11.39
2023-12-29T14:53:58.770Z,11.34
2023-12-29T14:56:25.396Z,11.21
2023-12-29T14:58:51.988Z,11.38
2023-12-29T15:01:18.710Z,11.33
2023-12-29T15:03:45.506Z,11.35
2023-12-29T15:06:12.459Z,11.54
2023-12-29T15:08:39.039Z,11.50
2023-12-29T15:11:06.934Z,11.43
2023-12-29T15:13:33.575Z,11.33
2023-12-29T15:16:02.042Z,11.50
2023-12-29T15:18:31.339Z,11.41
2023-12-29T15:20:59.022Z,11.23
2023-12-29T15:23:25.893Z,11.48
2023-12-29T15:25:52.611Z,11.52
2023-12-29T15:28:19.360Z,11.33
2023-12-29T15:30:51.002Z,11.34
2023-12-29T15:33:17.695Z,11.53
2023-12-29T15:35:44.291Z,11.47
2023-12-29T15:38:10.825Z,11.36
2023-12-29T15:40:37.678Z,11.45
2023-12-29T15:43:04.813Z,11.70
2023-12-29T15:45:33.535Z,11.68
2023-12-29T15:48:00.754Z,11.68
2023-12-29T15:50:27.913Z,11.84
2023-12-29T15:52:54.766Z,11.55
2023-12-29T15:55:21.525Z,11.46
2023-12-29T15:57:48.188Z,11.60
2023-12-29T16:00:15.293Z,11.34
2023-12-29T16:02:42.120Z,11.42
2023-12-29T16:05:08.918Z,11.44
2023-12-29T16:07:36.022Z,11.19
2023-12-29T16:10:04.437Z,11.40
2023-12-29T16:12:31.196Z,11.18
2023-12-29T16:14:57.768Z,11.24
2023-12-29T16:17:24.415Z,11.22
2023-12-29T16:19:51.054Z,11.23
2023-12-29T16:22:17.677Z,11.20
2023-12-29T16:24:44.328Z,11.23
2023-12-29T16:27:11.004Z,11.24
2023-12-29T16:29:37.550Z,11.23
2023-12-29T16:32:04.475Z,11.19
2023-12-29T16:34:31.088Z,11.18
2023-12-29T16:37:01.783Z,11.14
2023-12-29T16:39:29.094Z,11.27
2023-12-29T16:41:56.180Z,11.46
2023-12-29T16:44:22.757Z,11.15
2023-12-29T16:46:49.332Z,11.14
2023-12-29T16:49:16.170Z,11.25
2023-12-29T16:51:44.811Z,11.35
2023-12-29T16:54:12.081Z,11.15
2023-12-29T16:56:38.938Z,11.26
2023-12-29T16:59:07.002Z,11.20
2023-12-29T17:01:33.960Z,11.16
2023-12-29T17:04:00.872Z,11.25
2023-12-29T17:06:27.476Z,11.18
2023-12-29T17:08:54.033Z,11.13
2023-12-29T17:11:20.685Z,11.04
2023-12-29T17:13:47.229Z,11.17
2023-12-29T17:16:15.766Z,11.04
2023-12-29T17:18:43.402Z,11.00
2023-12-29T17:21:11.424Z,10.92
2023-12-29T17:23:37.925Z,10.90
2023-12-29T17:26:10.123Z,11.17
2023-12-29T17:28:36.608Z,11.02
2023-12-29T17:31:05.149Z,10.92
2023-12-29T17:33:31.886Z,10.91
2023-12-29T17:35:58.548Z,10.89
2023-12-29T17:38:25.065Z,10.98
2023-12-29T17:40:51.625Z,10.99
2023-12-29T17:43:18.172Z,10.97
2023-12-29T17:45:44.905Z,10.90
2023-12-29T17:48:11.473Z,10.94
2023-12-29T17:50:38.045Z,10.84
2023-12-29T17:53:04.862Z,10.88
2023-12-29T17:55:31.467Z,10.92
2023-12-29T17:57:58.176Z,11.03
2023-12-29T18:00:24.766Z,11.00
2023-12-29T18:02:51.284Z,10.88
2023-12-29T18:05:17.897Z,10.89
2023-12-29T18:07:44.484Z,10.97
2023-12-29T18:10:11.120Z,11.12
2023-12-29T18:12:37.656Z,11.17
2023-12-29T18:15:04.401Z,10.98
2023-12-29T18:17:34.498Z,11.05
2023-12-29T18:20:01.322Z,11.01
2023-12-29T18:22:28.025Z,11.14
2023-12-29T18:24:54.632Z,11.04
2023-12-29T18:27:21.139Z,11.11
2023-12-29T18:29:47.639Z,11.06
2023-12-29T18:32:20.003Z,11.01
2023-12-29T18:34:51.025Z,11.05
2023-12-29T18:37:18.248Z,11.12
2023-12-29T18:39:46.428Z,11.06
2023-12-29T18:42:13.585Z,11.24
2023-12-29T18:44:40.715Z,11.21
2023-12-29T18:47:07.706Z,11.27
2023-12-29T18:49:34.517Z,11.16
2023-12-29T18:52:01.335Z,11.17
2023-12-29T18:54:33.888Z,11.26
2023-12-29T18:57:02.076Z,11.00
2023-12-29T18:59:29.601Z,11.18
2023-12-29T19:01:58.805Z,11.18
2023-12-29T19:04:26.270Z,11.08
2023-12-29T19:06:52.946Z,11.04
2023-12-29T19:09:19.464Z,11.02
2023-12-29T19:11:46.186Z,11.00
2023-12-29T19:14:12.960Z,11.09
2023-12-29T19:16:40.841Z,11.03
2023-12-29T19:19:07.385Z,11.07
2023-12-29T19:21:34.612Z,10.91
2023-12-29T19:24:02.273Z,10.98
2023-12-29T19:26:29.884Z,10.90
2023-12-29T19:28:57.078Z,10.96
2023-12-29T19:31:26.009Z,10.96
2023-12-29T19:33:54.273Z,10.94
2023-12-29T19:36:21.775Z,10.87
2023-12-29T19:38:52.828Z,10.87
2023-12-29T19:41:22.960Z,10.86
2023-12-29T19:43:49.883Z,10.85
2023-12-29T19:46:18.043Z,10.67
2023-12-29T19:48:45.252Z,10.88
2023-12-29T19:51:12.213Z,10.94
2023-12-29T19:53:38.724Z,11.04
2023-12-29T19:56:06.140Z,11.11
2023-12-29T19:58:32.873Z,10.97
2023-12-29T20:01:00.288Z,11.04
2023-12-29T20:03:27.734Z,11.12
2023-12-29T20:05:54.575Z,11.01
2023-12-29T20:08:21.227Z,11.29
2023-12-29T20:10:47.942Z,11.06
2023-12-29T20:13:15.345Z,11.17
2023-12-29T20:15:44.114Z,11.02
2023-12-29T20:18:13.596Z,11.13
2023-12-29T20:20:40.123Z,10.97
2023-12-29T20:23:06.884Z,11.04
2023-12-29T20:25:33.451Z,10.98
2023-12-29T20:28:01.870Z,10.99
2023-12-29T20:30:28.486Z,11.06
2023-12-29T20:32:56.118Z,11.04
2023-12-29T20:35:23.095Z,11.16
2023-12-29T20:37:50.616Z,10.99
2023-12-29T20:40:17.191Z,11.12
2023-12-29T20:42:45.904Z,11.12
2023-12-29T20:45:13.329Z,11.14
2023-12-29T20:47:39.854Z,10.99
2023-12-29T20:50:07.644Z,11.09
2023-12-29T20:52:34.288Z,11.12
2023-12-29T20:55:01.522Z,11.30
2023-12-29T20:57:28.050Z,11.18
2023-12-29T20:59:54.802Z,11.10
2023-12-29T21:02:21.418Z,11.30
2023-12-29T21:04:48.090Z,11.28
2023-12-29T21:07:14.695Z,11.00
2023-12-29T21:09:41.276Z,11.26
2023-12-29T21:12:08.561Z,11.11
2023-12-29T21:14:35.228Z,11.16
2023-12-29T21:17:03.002Z,11.09
2023-12-29T21:19:29.985Z,11.01
2023-12-29T21:21:56.624Z,11.18
2023-12-29T21:24:23.134Z,11.16
2023-12-29T21:26:49.822Z,11.15
2023-12-29T21:29:16.533Z,11.01
2023-12-29T21:31:43.373Z,11.06
2023-12-29T21:34:10.318Z,11.17
2023-12-29T21:36:37.155Z,11.11
2023-12-29T21:39:05.248Z,11.15
2023-12-29T21:41:36.428Z,11.09
2023-12-29T21:44:04.541Z,11.08
2023-12-29T21:46:31.419Z,11.10
2023-12-29T21:48:58.186Z,11.12
2023-12-29T21:51:28.062Z,10.98
2023-12-29T21:53:54.606Z,11.02
2023-12-29T21:56:21.171Z,11.11
2023-12-29T21:58:51.930Z,11.03
2023-12-29T22:01:39.451Z,10.90
2023-12-29T22:04:08.010Z,10.85
2023-12-29T22:06:34.965Z,10.63
2023-12-29T22:09:04.507Z,10.84
2023-12-29T22:11:31.121Z,10.81
2023-12-29T22:13:57.916Z,10.80
2023-12-29T22:16:26.027Z,10.89
2023-12-29T22:18:53.274Z,10.84
2023-12-29T22:21:20.654Z,10.92
2023-12-29T22:23:48.120Z,10.86
2023-12-29T22:26:16.110Z,10.76
2023-12-29T22:28:46.628Z,10.84
2023-12-29T22:31:14.929Z,10.95
2023-12-29T22:33:43.069Z,10.77
2023-12-29T22:36:13.369Z,10.79
2023-12-29T22:38:40.693Z,10.82
2023-12-29T22:41:12.274Z,10.87
2023-12-29T22:43:39.150Z,10.78
2023-12-29T22:46:05.889Z,10.63
2023-12-29T22:48:32.799Z,10.63
2023-12-29T22:50:59.884Z,10.62
2023-12-29T22:53:27.616Z,10.54
2023-12-29T22:55:55.166Z,10.64
2023-12-29T22:58:22.983Z,10.76
2023-12-29T23:00:52.548Z,10.77
2023-12-29T23:03:19.717Z,10.71
2023-12-29T23:05:46.809Z,10.91
2023-12-29T23:08:13.842Z,10.81
2023-12-29T23:10:40.433Z,10.81
2023-12-29T23:13:07.001Z,10.79
2023-12-29T23:15:34.633Z,10.93
2023-12-29T23:18:01.261Z,10.84
2023-12-29T23:20:28.041Z,10.84
2023-12-29T23:22:54.820Z,10.91
2023-12-29T23:25:21.500Z,10.82
2023-12-29T23:27:49.811Z,10.63
2023-12-29T23:30:19.809Z,10.73
2023-12-29T23:32:47.251Z,10.89
2023-12-29T23:35:20.187Z,10.86
2023-12-29T23:37:51.577Z,10.76
2023-12-29T23:40:18.159Z,10.99
2023-12-29T23:42:44.731Z,10.88
2023-12-29T23:45:11.339Z,10.75
2023-12-29T23:47:38.050Z,11.01
2023-12-29T23:50:05.090Z,10.81
2023-12-29T23:52:31.639Z,10.92
2023-12-29T23:54:58.246Z,10.76
2023-12-29T23:57:24.872Z,10.64
2023-12-29T23:59:51.443Z,10.80
